createdAt,value
2023-12-01T00:01:32.688Z,452.70
2023-12-01T00:04:02.087Z,464.70
2023-12-01T00:06:32.946Z,209.30
2023-12-01T00:09:02.220Z,107.40
2023-12-01T00:11:32.228Z,106.30
2023-12-01T00:14:01.627Z,90.90
2023-12-01T00:16:32.165Z,79.90
2023-12-01T00:19:01.802Z,75.10
2023-12-01T00:21:32.557Z,167.00
2023-12-01T00:24:01.997Z,136.80
2023-12-01T00:26:32.532Z,104.00
2023-12-01T00:29:01.830Z,72.60
2023-12-01T00:31:32.976Z,69.00
2023-12-01T00:34:02.397Z,76.90
2023-12-01T00:36:34.375Z,69.50
2023-12-01T00:39:04.857Z,83.40
2023-12-01T00:41:35.500Z,124.50
2023-12-01T00:44:05.552Z,112.80
2023-12-01T00:46:36.390Z,86.40
2023-12-01T00:49:05.665Z,159.60
2023-12-01T00:51:36.413Z,139.90
2023-12-01T00:54:06.196Z,135.10
2023-12-01T00:56:36.718Z,66.90
2023-12-01T00:59:06.041Z,72.40
2023-12-01T01:01:37.377Z,76.30
2023-12-01T01:04:07.328Z,60.30
2023-12-01T01:06:38.647Z,71.50
2023-12-01T01:09:08.026Z,66.30
2023-12-01T01:11:38.559Z,46.80
2023-12-01T01:14:08.180Z,129.40
2023-12-01T01:16:39.513Z,133.90
2023-12-01T01:19:08.969Z,89.90
2023-12-01T01:21:39.683Z,60.80
2023-12-01T01:24:09.037Z,56.80
2023-12-01T01:26:39.598Z,63.70
2023-12-01T01:29:08.967Z,63.50
2023-12-01T01:31:39.515Z,78.20
2023-12-01T01:34:10.008Z,75.10
2023-12-01T01:36:40.943Z,175.40
2023-12-01T01:39:10.687Z,158.40
2023-12-01T01:41:41.214Z,119.60
2023-12-01T01:44:10.509Z,79.90
2023-12-01T01:46:41.474Z,73.80
2023-12-01T01:49:11.034Z,83.60
2023-12-01T01:51:41.613Z,83.90
2023-12-01T01:54:11.698Z,70.00
2023-12-01T01:56:42.432Z,75.10
2023-12-01T01:59:11.726Z,73.00
2023-12-01T02:01:42.446Z,73.60
2023-12-01T02:04:11.894Z,76.20
2023-12-01T02:06:42.688Z,192.40
2023-12-01T02:09:12.817Z,185.30
2023-12-01T02:11:43.866Z,153.10
2023-12-01T02:14:14.726Z,93.70
2023-12-01T02:16:48.203Z,77.20
2023-12-01T02:19:17.653Z,79.60
2023-12-01T02:21:49.188Z,78.00
2023-12-01T02:24:18.865Z,71.40
2023-12-01T02:26:49.485Z,71.80
2023-12-01T02:29:18.788Z,75.30
2023-12-01T02:31:49.381Z,63.60
2023-12-01T02:34:22.724Z,61.30
2023-12-01T02:36:55.230Z,148.90
2023-12-01T02:39:24.893Z,163.70
2023-12-01T02:41:55.421Z,136.50
2023-12-01T02:44:24.688Z,84.70
2023-12-01T02:46:55.319Z,64.80
2023-12-01T02:49:26.211Z,56.80
2023-12-01T02:51:56.784Z,60.00
2023-12-01T02:54:26.219Z,62.30
2023-12-01T02:56:56.766Z,62.10
2023-12-01T02:59:26.155Z,56.50
2023-12-01T03:01:57.048Z,61.40
2023-12-01T03:04:26.591Z,63.10
2023-12-01T03:06:57.237Z,178.10
2023-12-01T03:09:26.529Z,211.60
2023-12-01T03:11:57.047Z,176.60
2023-12-01T03:14:26.558Z,131.90
2023-12-01T03:16:58.071Z,72.20
2023-12-01T03:19:27.302Z,74.50
2023-12-01T03:21:58.173Z,82.40
2023-12-01T03:24:27.444Z,83.20
2023-12-01T03:26:57.966Z,87.40
2023-12-01T03:29:27.273Z,87.70
2023-12-01T03:31:57.815Z,224.60
2023-12-01T03:34:27.299Z,202.30
2023-12-01T03:36:58.306Z,152.80
2023-12-01T03:39:27.637Z,83.00
2023-12-01T03:41:58.788Z,85.10
2023-12-01T03:44:28.600Z,81.80
2023-12-01T03:46:59.172Z,89.70
2023-12-01T03:49:28.632Z,98.50
2023-12-01T03:51:59.213Z,93.80
2023-12-01T03:54:28.664Z,99.50
2023-12-01T03:56:59.499Z,110.40
2023-12-01T03:59:28.896Z,270.40
2023-12-01T04:01:59.514Z,269.60
2023-12-01T04:04:29.006Z,262.80
2023-12-01T04:06:59.668Z,170.10
2023-12-01T04:09:28.954Z,104.80
2023-12-01T04:11:59.590Z,114.70
2023-12-01T04:14:29.682Z,115.00
2023-12-01T04:17:11.300Z,122.10
2023-12-01T04:19:42.135Z,77.50
2023-12-01T04:22:11.455Z,106.30
2023-12-01T04:24:42.391Z,98.20
2023-12-01T04:27:11.672Z,101.70
2023-12-01T04:29:42.198Z,237.70
2023-12-01T04:32:11.470Z,230.40
2023-12-01T04:34:42.128Z,202.50
2023-12-01T04:37:11.562Z,124.50
2023-12-01T04:39:42.285Z,89.70
2023-12-01T04:42:11.565Z,95.70
2023-12-01T04:44:42.090Z,95.40
2023-12-01T04:47:11.730Z,90.30
2023-12-01T04:49:42.329Z,102.80
2023-12-01T04:52:11.664Z,84.60
2023-12-01T04:54:43.431Z,90.90
2023-12-01T04:57:12.895Z,102.70
2023-12-01T05:02:12.757Z,66.30
2023-12-01T05:04:43.622Z,216.40
2023-12-01T05:07:13.513Z,214.90
2023-12-01T05:09:44.107Z,178.60
2023-12-01T05:12:13.396Z,101.90
2023-12-01T05:14:44.026Z,95.30
2023-12-01T05:17:13.447Z,91.60
2023-12-01T05:19:44.164Z,102.00
2023-12-01T05:22:13.495Z,83.40
2023-12-01T05:24:44.215Z,109.10
2023-12-01T05:27:13.864Z,97.50
2023-12-01T05:29:44.438Z,85.10
2023-12-01T05:32:14.314Z,107.80
2023-12-01T05:34:44.929Z,209.70
2023-12-01T05:37:14.321Z,192.30
2023-12-01T05:39:44.936Z,169.20
2023-12-01T05:42:14.215Z,105.20
2023-12-01T05:44:44.837Z,104.30
2023-12-01T05:47:14.411Z,122.40
2023-12-01T05:49:44.971Z,138.20
2023-12-01T05:52:14.323Z,141.50
2023-12-01T05:54:45.225Z,142.90
2023-12-01T05:57:14.517Z,144.90
2023-12-01T05:59:45.937Z,137.40
2023-12-01T06:02:15.837Z,143.30
2023-12-01T06:04:46.737Z,330.20
2023-12-01T06:07:16.562Z,298.60
2023-12-01T06:09:49.118Z,287.30
2023-12-01T06:12:18.494Z,211.90
2023-12-01T06:14:49.025Z,130.20
2023-12-01T06:17:18.324Z,130.60
2023-12-01T06:19:48.953Z,117.10
2023-12-01T06:22:18.369Z,123.60
2023-12-01T06:24:48.980Z,116.60
2023-12-01T06:27:18.398Z,123.40
2023-12-01T06:29:49.023Z,114.60
2023-12-01T06:32:18.526Z,159.50
2023-12-01T06:34:49.059Z,108.60
2023-12-01T06:37:19.421Z,241.50
2023-12-01T06:39:50.036Z,247.00
2023-12-01T06:42:19.486Z,231.40
2023-12-01T06:44:50.039Z,120.00
2023-12-01T06:47:19.349Z,101.30
2023-12-01T06:49:50.280Z,111.80
2023-12-01T06:52:20.427Z,106.90
2023-12-01T06:54:51.060Z,107.70
2023-12-01T06:57:20.325Z,120.20
2023-12-01T06:59:50.956Z,125.20
2023-12-01T07:02:22.017Z,156.10
2023-12-01T07:04:57.030Z,124.70
2023-12-01T07:07:32.187Z,250.10
2023-12-01T07:10:07.576Z,208.80
2023-12-01T07:12:37.012Z,116.40
2023-12-01T07:15:12.801Z,103.70
2023-12-01T07:17:43.445Z,111.30
2023-12-01T07:20:16.074Z,171.30
2023-12-01T07:22:47.545Z,143.20
2023-12-01T07:25:26.171Z,112.90
2023-12-01T07:28:06.934Z,115.60
2023-12-01T07:30:37.963Z,110.80
2023-12-01T07:33:07.599Z,106.20
2023-12-01T07:35:38.580Z,246.00
2023-12-01T07:38:07.996Z,199.20
2023-12-01T07:40:38.532Z,116.40
2023-12-01T07:43:07.876Z,101.40
2023-12-01T07:45:38.584Z,107.40
2023-12-01T07:48:11.450Z,107.90
2023-12-01T07:50:42.181Z,91.50
2023-12-01T07:53:11.480Z,93.30
2023-12-01T07:55:44.658Z,105.10
2023-12-01T07:58:14.201Z,102.10
2023-12-01T08:00:45.087Z,91.60
2023-12-01T08:03:14.464Z,113.30
2023-12-01T08:05:45.342Z,263.90
2023-12-01T08:08:15.642Z,228.30
2023-12-01T08:10:46.315Z,136.90
2023-12-01T08:13:18.616Z,104.50
2023-12-01T08:15:49.373Z,126.90
2023-12-01T08:18:19.063Z,119.60
2023-12-01T08:20:51.064Z,121.20
2023-12-01T08:23:20.421Z,140.70
2023-12-01T08:28:22.754Z,131.10
2023-12-01T08:30:54.508Z,114.40
2023-12-01T08:33:23.881Z,142.80
2023-12-01T08:35:55.834Z,133.80
2023-12-01T08:38:25.692Z,143.90
2023-12-01T08:40:56.422Z,254.10
2023-12-01T08:43:26.135Z,175.10
2023-12-01T08:45:56.905Z,109.80
2023-12-01T08:48:26.375Z,116.50
2023-12-01T08:50:57.024Z,110.40
2023-12-01T08:53:26.337Z,108.70
2023-12-01T08:56:00.203Z,117.00
2023-12-01T08:58:29.920Z,127.40
2023-12-01T09:01:00.693Z,129.70
2023-12-01T09:03:30.233Z,130.40
2023-12-01T09:06:05.046Z,131.30
2023-12-01T09:08:36.638Z,122.70
2023-12-01T09:11:06.543Z,128.00
2023-12-01T09:13:38.157Z,209.20
2023-12-01T09:16:08.015Z,136.30
2023-12-01T09:18:38.653Z,123.80
2023-12-01T09:21:09.319Z,112.80
2023-12-01T09:23:42.022Z,122.00
2023-12-01T09:26:20.464Z,126.10
2023-12-01T09:28:52.450Z,120.60
2023-12-01T09:31:22.918Z,115.70
2023-12-01T09:33:53.598Z,107.60
2023-12-01T09:36:23.207Z,116.50
2023-12-01T09:38:53.966Z,120.70
2023-12-01T09:41:23.343Z,123.40
2023-12-01T09:44:00.154Z,131.50
2023-12-01T09:46:38.845Z,95.30
2023-12-01T09:49:08.229Z,158.30
2023-12-01T09:51:38.902Z,153.00
2023-12-01T09:54:08.422Z,106.80
2023-12-01T09:56:39.139Z,109.50
2023-12-01T09:59:09.109Z,108.50
2023-12-01T10:01:40.551Z,106.00
2023-12-01T10:04:10.519Z,100.20
2023-12-01T10:06:42.081Z,109.20
2023-12-01T10:09:13.301Z,108.20
2023-12-01T10:11:44.039Z,114.00
2023-12-01T10:14:13.524Z,112.40
2023-12-01T10:16:44.043Z,104.90
2023-12-01T10:19:16.482Z,116.00
2023-12-01T10:21:48.080Z,109.40
2023-12-01T10:24:18.889Z,115.10
2023-12-01T10:26:51.425Z,111.70
2023-12-01T10:29:33.996Z,134.10
2023-12-01T10:32:06.085Z,126.50
2023-12-01T10:34:35.671Z,172.50
2023-12-01T10:37:06.945Z,135.00
2023-12-01T10:39:36.206Z,135.70
2023-12-01T10:42:08.137Z,105.50
2023-12-01T10:44:37.569Z,111.80
2023-12-01T10:49:41.694Z,106.50
2023-12-01T10:52:13.827Z,108.50
2023-12-01T10:54:43.979Z,125.10
2023-12-01T10:57:33.356Z,109.50
2023-12-01T11:00:10.994Z,104.50
2023-12-01T11:02:42.039Z,112.90
2023-12-01T11:05:11.704Z,114.80
2023-12-01T11:07:50.208Z,101.90
2023-12-01T11:10:35.382Z,146.00
2023-12-01T11:13:15.943Z,126.10
2023-12-01T11:15:46.562Z,117.00
2023-12-01T11:18:16.128Z,104.30
2023-12-01T11:20:48.138Z,96.80
2023-12-01T11:23:24.958Z,105.80
2023-12-01T11:26:07.015Z,119.00
2023-12-01T11:28:38.057Z,143.50
2023-12-01T11:31:16.128Z,92.70
2023-12-01T11:33:51.940Z,104.20
2023-12-01T11:36:23.768Z,99.10
2023-12-01T11:39:17.596Z,114.80
2023-12-01T11:41:49.747Z,164.10
2023-12-01T11:44:20.677Z,120.60
2023-12-01T11:47:03.769Z,127.30
2023-12-01T11:49:40.330Z,90.90
2023-12-01T11:52:22.591Z,132.00
2023-12-01T11:54:53.999Z,126.70
2023-12-01T11:57:23.503Z,86.90
2023-12-01T11:59:58.358Z,83.90
2023-12-01T12:02:32.144Z,81.80
2023-12-01T12:05:06.694Z,114.50
2023-12-01T12:07:39.323Z,113.10
2023-12-01T12:10:09.350Z,99.20
2023-12-01T12:12:40.551Z,91.50
2023-12-01T12:15:11.118Z,97.90
2023-12-01T12:17:45.965Z,103.30
2023-12-01T12:20:25.296Z,101.40
2023-12-01T12:22:56.229Z,89.10
2023-12-01T12:25:35.627Z,114.30
2023-12-01T12:28:12.954Z,90.90
2023-12-01T12:30:44.375Z,95.50
2023-12-01T12:33:13.929Z,137.10
2023-12-01T12:35:44.897Z,118.90
2023-12-01T12:38:15.047Z,100.50
2023-12-01T12:40:45.707Z,112.20
2023-12-01T12:43:15.183Z,107.30
2023-12-01T12:45:46.035Z,99.00
2023-12-01T12:48:15.614Z,104.60
2023-12-01T12:50:49.001Z,87.60
2023-12-01T12:53:18.467Z,98.50
2023-12-01T12:55:49.071Z,93.70
2023-12-01T12:58:19.639Z,135.60
2023-12-01T13:00:50.272Z,103.10
2023-12-01T13:03:20.161Z,104.10
2023-12-01T13:05:51.100Z,95.60
2023-12-01T13:08:20.596Z,94.70
2023-12-01T13:10:51.336Z,132.80
2023-12-01T13:13:21.472Z,113.00
2023-12-01T13:15:53.233Z,87.10
2023-12-01T13:18:23.278Z,82.80
2023-12-01T13:20:54.098Z,97.00
2023-12-01T13:23:23.874Z,97.80
2023-12-01T13:25:54.507Z,102.20
2023-12-01T13:28:24.204Z,97.90
2023-12-01T13:30:54.854Z,115.30
2023-12-01T13:33:24.274Z,106.30
2023-12-01T13:35:55.006Z,108.30
2023-12-01T13:38:25.317Z,117.20
2023-12-01T13:40:56.337Z,107.70
2023-12-01T13:43:25.629Z,151.90
2023-12-01T13:45:56.426Z,142.40
2023-12-01T13:48:26.234Z,108.30
2023-12-01T13:50:57.795Z,97.30
2023-12-01T13:53:27.334Z,95.80
2023-12-01T13:58:36.608Z,95.40
2023-12-01T14:01:06.722Z,86.80
2023-12-01T14:03:37.422Z,100.10
2023-12-01T14:06:07.938Z,108.50
2023-12-01T14:08:38.804Z,117.60
2023-12-01T14:11:09.490Z,199.70
2023-12-01T14:13:41.482Z,162.60
2023-12-01T14:16:11.534Z,103.10
2023-12-01T14:18:42.274Z,101.20
2023-12-01T14:21:12.089Z,100.00
2023-12-01T14:23:42.944Z,100.70
2023-12-01T14:26:12.597Z,100.00
2023-12-01T14:28:43.132Z,107.20
2023-12-01T14:31:12.556Z,111.60
2023-12-01T14:33:43.286Z,199.20
2023-12-01T14:36:13.272Z,168.30
2023-12-01T14:38:43.924Z,110.30
2023-12-01T14:41:13.321Z,95.90
2023-12-01T14:43:44.409Z,92.70
2023-12-01T14:46:14.397Z,102.70
2023-12-01T14:48:45.188Z,104.90
2023-12-01T14:51:14.955Z,122.80
2023-12-01T14:53:45.815Z,98.30
2023-12-01T14:56:15.269Z,99.90
2023-12-01T14:58:46.103Z,88.30
2023-12-01T15:01:15.640Z,99.70
2023-12-01T15:03:46.690Z,249.50
2023-12-01T15:06:16.074Z,196.90
2023-12-01T15:08:46.592Z,140.70
2023-12-01T15:11:16.065Z,82.30
2023-12-01T15:13:46.602Z,93.40
2023-12-01T15:16:18.387Z,89.50
2023-12-01T15:18:49.120Z,89.60
2023-12-01T15:21:18.851Z,79.70
2023-12-01T15:23:49.758Z,96.00
2023-12-01T15:26:19.141Z,99.50
2023-12-01T15:28:49.677Z,98.40
2023-12-01T15:31:19.221Z,240.50
2023-12-01T15:33:50.312Z,193.90
2023-12-01T15:36:20.087Z,115.40
2023-12-01T15:38:50.880Z,107.70
2023-12-01T15:41:20.288Z,108.40
2023-12-01T15:43:51.096Z,114.30
2023-12-01T15:46:20.854Z,113.20
2023-12-01T15:48:51.576Z,103.70
2023-12-01T15:51:20.998Z,106.10
2023-12-01T15:53:51.607Z,100.40
2023-12-01T15:56:20.966Z,109.30
2023-12-01T15:58:52.419Z,256.40
2023-12-01T16:01:21.760Z,209.40
2023-12-01T16:06:22.100Z,106.90
2023-12-01T16:08:52.720Z,115.60
2023-12-01T16:11:22.000Z,124.60
2023-12-01T16:13:52.527Z,131.90
2023-12-01T16:16:21.937Z,121.80
2023-12-01T16:18:52.590Z,130.70
2023-12-01T16:21:23.186Z,133.20
2023-12-01T16:23:54.432Z,122.70
2023-12-01T16:26:24.347Z,329.00
2023-12-01T16:28:54.971Z,219.00
2023-12-01T16:31:24.326Z,115.30
2023-12-01T16:33:54.961Z,104.40
2023-12-01T16:36:31.718Z,104.90
2023-12-01T16:39:06.030Z,104.80
2023-12-01T16:41:35.397Z,122.00
2023-12-01T16:44:06.027Z,118.80
2023-12-01T16:46:35.546Z,118.60
2023-12-01T16:49:06.277Z,123.90
2023-12-01T16:51:35.823Z,107.40
2023-12-01T16:54:06.749Z,244.90
2023-12-01T16:56:36.215Z,178.60
2023-12-01T16:59:06.845Z,159.70
2023-12-01T17:01:36.142Z,129.30
2023-12-01T17:04:07.039Z,123.80
2023-12-01T17:06:36.893Z,137.10
2023-12-01T17:09:07.753Z,129.40
2023-12-01T17:11:37.954Z,128.30
2023-12-01T17:14:08.476Z,137.90
2023-12-01T17:16:37.986Z,121.30
2023-12-01T17:19:08.713Z,256.10
2023-12-01T17:21:38.118Z,194.30
2023-12-01T17:24:09.239Z,162.80
2023-12-01T17:26:38.666Z,149.10
2023-12-01T17:29:16.346Z,134.70
2023-12-01T17:31:50.568Z,130.90
2023-12-01T17:34:20.715Z,107.70
2023-12-01T17:36:51.225Z,110.80
2023-12-01T17:39:23.820Z,112.30
2023-12-01T17:41:54.488Z,153.40
2023-12-01T17:44:23.938Z,313.30
2023-12-01T17:46:54.560Z,202.80
2023-12-01T17:49:26.066Z,120.10
2023-12-01T17:51:59.087Z,82.90
2023-12-01T17:54:28.513Z,85.70
2023-12-01T17:56:59.175Z,69.90
2023-12-01T17:59:28.711Z,81.90
2023-12-01T18:01:59.430Z,79.00
2023-12-01T18:04:28.920Z,74.60
2023-12-01T18:06:59.611Z,81.60
2023-12-01T18:09:29.028Z,196.60
2023-12-01T18:11:59.913Z,142.20
2023-12-01T18:14:29.347Z,81.20
2023-12-01T18:17:00.266Z,69.40
2023-12-01T18:19:29.905Z,76.60
2023-12-01T18:22:00.625Z,65.00
2023-12-01T18:24:29.955Z,49.70
2023-12-01T18:27:00.570Z,64.60
2023-12-01T18:29:30.371Z,56.60
2023-12-01T18:32:01.106Z,68.70
2023-12-01T18:34:31.495Z,172.40
2023-12-01T18:37:02.153Z,122.70
2023-12-01T18:39:31.510Z,64.30
2023-12-01T18:42:02.289Z,53.40
2023-12-01T18:44:31.698Z,55.60
2023-12-01T18:47:02.701Z,47.00
2023-12-01T18:49:33.161Z,57.60
2023-12-01T18:52:04.337Z,52.20
2023-12-01T18:54:33.737Z,52.70
2023-12-01T18:57:05.215Z,57.80
2023-12-01T18:59:35.077Z,153.10
2023-12-01T19:02:05.814Z,97.10
2023-12-01T19:04:35.401Z,62.00
2023-12-01T19:07:06.047Z,57.40
2023-12-01T19:09:36.059Z,42.70
2023-12-01T19:12:07.027Z,47.00
2023-12-01T19:14:36.497Z,49.90
2023-12-01T19:17:07.127Z,51.20
2023-12-01T19:19:36.590Z,55.30
2023-12-01T19:22:07.743Z,51.00
2023-12-01T19:24:36.980Z,116.20
2023-12-01T19:27:07.524Z,123.20
2023-12-01T19:29:37.165Z,101.80
2023-12-01T19:32:08.390Z,53.90
2023-12-01T19:34:38.394Z,55.20
2023-12-01T19:37:08.905Z,57.90
2023-12-01T19:39:38.207Z,55.10
2023-12-01T19:42:11.726Z,50.70
2023-12-01T19:44:41.506Z,108.40
2023-12-01T19:47:12.044Z,103.20
2023-12-01T19:49:41.688Z,93.20
2023-12-01T19:52:13.011Z,51.00
2023-12-01T19:54:42.708Z,52.80
2023-12-01T19:57:13.369Z,49.40
2023-12-01T19:59:42.656Z,53.80
2023-12-01T20:02:13.715Z,49.10
2023-12-01T20:04:43.077Z,53.30
2023-12-01T20:07:13.801Z,96.30
2023-12-01T20:09:43.594Z,67.50
2023-12-01T20:12:14.531Z,48.00
2023-12-01T20:14:44.080Z,54.70
2023-12-01T20:17:14.670Z,44.50
2023-12-01T20:19:44.269Z,46.70
2023-12-01T20:22:14.822Z,38.20
2023-12-01T20:24:44.124Z,135.70
2023-12-01T20:27:15.649Z,136.20
2023-12-01T20:29:46.206Z,82.60
2023-12-01T20:32:16.841Z,58.10
2023-12-01T20:34:46.447Z,46.20
2023-12-01T20:37:17.081Z,50.60
2023-12-01T20:39:46.376Z,56.10
2023-12-01T20:42:17.038Z,109.60
2023-12-01T20:44:46.924Z,93.70
2023-12-01T20:47:17.551Z,54.00
2023-12-01T20:49:46.914Z,56.90
2023-12-01T20:52:17.675Z,53.00
2023-12-01T20:54:47.103Z,50.90
2023-12-01T20:57:17.854Z,55.50
2023-12-01T20:59:47.225Z,121.70
2023-12-01T21:02:17.857Z,76.00
2023-12-01T21:04:47.249Z,56.90
2023-12-01T21:07:17.909Z,59.80
2023-12-01T21:09:47.279Z,53.40
2023-12-01T21:12:17.898Z,84.60
2023-12-01T21:14:47.627Z,76.30
2023-12-01T21:17:19.348Z,66.40
2023-12-01T21:19:48.784Z,53.00
2023-12-01T21:24:48.507Z,53.50
2023-12-01T21:27:19.434Z,60.00
2023-12-01T21:29:48.990Z,135.40
2023-12-01T21:32:20.305Z,105.50
2023-12-01T21:34:49.723Z,57.60
2023-12-01T21:37:20.755Z,55.10
2023-12-01T21:39:50.037Z,64.60
2023-12-01T21:42:20.634Z,59.80
2023-12-01T21:44:50.305Z,81.60
2023-12-01T21:47:21.023Z,90.50
2023-12-01T21:49:50.366Z,71.70
2023-12-01T21:52:21.065Z,60.00
2023-12-01T21:54:50.470Z,68.20
2023-12-01T21:57:21.503Z,68.60
2023-12-01T21:59:50.929Z,59.20
2023-12-01T22:02:21.832Z,88.90
2023-12-01T22:04:51.144Z,103.90
2023-12-01T22:07:21.860Z,64.20
2023-12-01T22:09:51.293Z,63.50
2023-12-01T22:12:21.851Z,62.70
2023-12-01T22:14:51.270Z,45.50
2023-12-01T22:17:22.232Z,57.20
2023-12-01T22:19:51.529Z,138.20
2023-12-01T22:22:22.176Z,123.90
2023-12-01T22:24:51.485Z,82.60
2023-12-01T22:27:23.258Z,65.00
2023-12-01T22:29:52.581Z,65.80
2023-12-01T22:34:54.191Z,55.70
2023-12-01T22:37:24.837Z,74.60
2023-12-01T22:39:54.120Z,150.50
2023-12-01T22:42:24.792Z,86.80
2023-12-01T22:44:54.059Z,56.80
2023-12-01T22:47:24.613Z,64.60
2023-12-01T22:49:54.292Z,53.60
2023-12-01T22:52:25.227Z,53.20
2023-12-01T22:54:54.546Z,72.00
2023-12-01T22:57:25.401Z,76.80
2023-12-01T22:59:54.907Z,72.00
2023-12-01T23:02:25.720Z,65.20
2023-12-01T23:04:55.108Z,64.20
2023-12-01T23:07:25.841Z,52.60
2023-12-01T23:09:55.139Z,52.60
2023-12-01T23:12:25.707Z,65.90
2023-12-01T23:14:55.096Z,52.30
2023-12-01T23:17:25.709Z,43.20
2023-12-01T23:19:55.191Z,52.40
2023-12-01T23:22:27.033Z,66.10
2023-12-01T23:24:56.264Z,67.90
2023-12-01T23:27:30.059Z,50.90
2023-12-01T23:30:04.016Z,42.60
2023-12-01T23:32:33.279Z,44.00
2023-12-01T23:35:06.404Z,119.70
2023-12-01T23:37:35.761Z,63.90
2023-12-01T23:40:07.434Z,47.60
2023-12-01T23:42:37.065Z,49.60
2023-12-01T23:47:36.991Z,65.90
2023-12-01T23:50:08.442Z,86.40
2023-12-01T23:52:38.744Z,59.70
2023-12-01T23:55:09.594Z,50.00
2023-12-01T23:57:38.872Z,50.90
